Time;durP1;ratioP1;P1;durP2;ratioP2;P2;SDS_P1;SDS_P2;PMS_P1;PMS_P2;Temp;Humidity;BMP_temperature;BMP_pressure;BME280_temperature;BME280_humidity;BME280_pressure;Samples;Min_cycle;Max_cycle;Signal;HPM_P1;HPM_P2
2022/09/08 00:05:52;;;;;;;;;;;;;;;;;;21087099;28;19967;-63
2022/09/08 00:15:54;;;;;;;;;;;;;;;;;;21086299;28;20319;-62
2022/09/08 00:25:56;;;;;;;;;;;;;;;;;;21086219;28;20380;-61
2022/09/08 00:35:58;;;;;;;;;;;;;;;;;;21083665;28;19924;-62
2022/09/08 00:46:00;;;;;;;;;;;;;;;;;;21084075;28;20014;-62
2022/09/08 00:56:05;;;;;;;;;;;;;;;;;;21084495;28;19931;-62
2022/09/08 01:06:07;;;;;;;;;;;;;;;;;;21083002;28;20241;-62
2022/09/08 01:16:08;;;;;;;;;;;;;;;;;;21081854;28;20015;-62
2022/09/08 01:26:11;;;;;;;;;;;;;;;;;;21082126;28;19928;-61
2022/09/08 01:36:19;;;;;;;;;;;;;;;;;;21080426;28;19931;-61
2022/09/08 01:46:30;;;;;;;;;;;;;;;;;;21079695;28;20010;-62
2022/09/08 01:56:35;;;;;;;;;;;;;;;;;;21079487;28;19969;-62
2022/09/08 02:06:40;;;;;;;;;;;;;;;;;;21079172;28;19924;-62
2022/09/08 02:16:48;;;;;;;;;;;;;;;;;;21078632;28;19924;-60
2022/09/08 02:26:55;;;;;;;;;;;;;;;;;;21078247;28;20277;-61
2022/09/08 02:36:59;;;;;;;;;;;;;;;;;;21078449;28;20257;-61
2022/09/08 02:47:02;;;;;;;;;;;;;;;;;;21078523;28;19946;-61
2022/09/08 02:57:06;;;;;;;;;;;;;;;;;;21088276;28;19928;-61
2022/09/08 03:07:10;;;;;;;;;;;;;;;;;;21092418;28;20014;-60
2022/09/08 03:17:15;;;;;;;;;;;;;;;;;;21089831;28;19971;-61
2022/09/08 03:27:18;;;;;;;;;;;;;;;;;;21090211;28;19924;-61
2022/09/08 03:37:21;;;;;;;;;;;;;;;;;;21089566;28;19931;-61
2022/09/08 03:47:23;;;;;;;;;;;;;;;;;;21088703;28;20434;-62
2022/09/08 03:57:25;;;;;;;;;;;;;;;;;;21087861;28;19978;-61
2022/09/08 04:07:27;;;;;;;;;;;;;;;;;;21087025;28;20045;-61
2022/09/08 04:17:29;;;;;;;;;;;;;;;;;;21086549;28;20041;-63
2022/09/08 04:27:32;;;;;;;;;;;;;;;;;;21085149;28;20011;-63
2022/09/08 04:37:35;;;;;;;;;;;;;;;;;;21084930;28;19931;-62
2022/09/08 04:47:37;;;;;;;;;;;;;;;;;;21086597;28;20011;-61
2022/09/08 04:57:39;;;;;;;;;;;;;;;;;;21083997;28;19932;-60
2022/09/08 05:07:41;;;;;;;;;;;;;;;;;;21082248;28;20046;-59
2022/09/08 05:17:43;;;;;;;;;;;;;;;;;;21081161;28;19959;-61
2022/09/08 05:27:45;;;;;;;;;;;;;;;;;;21081174;28;19924;-62
2022/09/08 05:37:47;;;;;;;;;;;;;;;;;;21081327;28;20370;-62
2022/09/08 05:47:49;;;;;;;;;;;;;;;;;;21080061;28;19924;-62
2022/09/08 05:57:51;;;;;;;;;;;;;;;;;;21079573;28;20354;-62
2022/09/08 06:07:53;;;;;;;;;;;;;;;;;;21080233;28;19978;-61
2022/09/08 06:17:57;;;;;;;;;;;;;;;;;;21079792;28;19924;-61
2022/09/08 06:27:59;;;;;;;;;;;;;;;;;;21084073;28;20384;-62
2022/09/08 06:38:00;;;;;;;;;;;;;;;;;;21094224;28;19930;-64
2022/09/08 06:48:02;;;;;;;;;;;;;;;;;;21093007;28;19924;-60
2022/09/08 06:58:04;;;;;;;;;;;;;;;;;;21093257;28;19932;-62
2022/09/08 07:08:06;;;;;;;;;;;;;;;;;;21091734;28;19931;-60
2022/09/08 07:18:08;;;;;;;;;;;;;;;;;;21091413;28;19924;-59
2022/09/08 07:28:10;;;;;;;;;;;;;;;;;;21089612;28;19925;-61
2022/09/08 07:38:11;;;;;;;;;;;;;;;;;;21091168;28;19958;-64
2022/09/08 07:48:13;;;;;;;;;;;;;;;;;;21089224;28;19963;-61
2022/09/08 07:58:15;;;;;;;;;;;;;;;;;;21088946;28;19924;-60
2022/09/08 08:08:17;;;;;;;;;;;;;;;;;;21089636;28;19957;-62
2022/09/08 08:18:19;;;;;;;;;;;;;;;;;;21087729;28;19924;-63
2022/09/08 08:28:21;;;;;;;;;;;;;;;;;;21086540;28;20467;-60
2022/09/08 08:38:23;;;;;;;;;;;;;;;;;;21077278;28;20366;-62
2022/09/08 08:48:24;;;;;;;;;;;;;;;;;;21081785;28;20054;-62
2022/09/08 08:58:26;;;;;;;;;;;;;;;;;;21083094;28;19924;-62
2022/09/08 09:08:28;;;;;;;;;;;;;;;;;;21082459;28;19974;-63
2022/09/08 09:18:29;;;;;;;;;;;;;;;;;;21082780;28;19931;-63
2022/09/08 09:28:33;;;;;;;;;;;;;;;;;;21079467;28;21324;-62
2022/09/08 09:38:35;;;;;;;;;;;;;;;;;;21080543;28;19924;-62
2022/09/08 09:48:38;;;;;;;;;;;;;;;;;;21080489;28;19924;-62
2022/09/08 09:58:39;;;;;;;;;;;;;;;;;;21079515;28;19931;-63
2022/09/08 10:08:42;;;;;;;;;;;;;;;;;;21096268;28;20372;-62
2022/09/08 10:18:45;;;;;;;;;;;;;;;;;;21096758;28;19924;-62
2022/09/08 10:28:47;;;;;;;;;;;;;;;;;;21095272;28;19924;-62
2022/09/08 10:38:49;;;;;;;;;;;;;;;;;;21094758;28;19934;-60
2022/09/08 10:48:51;;;;;;;;;;;;;;;;;;21093621;28;19924;-62
2022/09/08 10:58:53;;;;;;;;;;;;;;;;;;21092418;28;19932;-60
2022/09/08 11:08:55;;;;;;;;;;;;;;;;;;21092188;28;20427;-61
2022/09/08 11:18:57;;;;;;;;;;;;;;;;;;21090428;28;19924;-63
2022/09/08 11:28:58;;;;;;;;;;;;;;;;;;21090458;28;20074;-59
2022/09/08 11:39:00;;;;;;;;;;;;;;;;;;21090317;28;19957;-62
2022/09/08 11:49:02;;;;;;;;;;;;;;;;;;21088766;28;19950;-61
2022/09/08 11:59:04;;;;;;;;;;;;;;;;;;21087666;28;19946;-61
2022/09/08 12:09:06;;;;;;;;;;;;;;;;;;21089214;28;19924;-60
2022/09/08 12:19:09;;;;;;;;;;;;;;;;;;21086123;28;20377;-60
2022/09/08 12:29:11;;;;;;;;;;;;;;;;;;21086450;28;20009;-62
2022/09/08 12:39:13;;;;;;;;;;;;;;;;;;21084934;28;20007;-63
2022/09/08 12:49:15;;;;;;;;;;;;;;;;;;21084138;28;20030;-61
2022/09/08 12:59:18;;;;;;;;;;;;;;;;;;21084390;28;19928;-63
2022/09/08 13:09:19;;;;;;;;;;;;;;;;;;21083150;28;19939;-62
2022/09/08 13:19:22;;;;;;;;;;;;;;;;;;21081713;28;19935;-62
2022/09/08 13:29:24;;;;;;;;;;;;;;;;;;21080886;28;19924;-62
2022/09/08 13:39:26;;;;;;;;;;;;;;;;;;21080132;28;20014;-61
2022/09/08 13:49:28;;;;;;;;;;;;;;;;;;21079887;28;20018;-58
2022/09/08 13:59:29;;;;;;;;;;;;;;;;;;21079672;28;19928;-62
2022/09/08 14:09:31;;;;;;;;;;;;;;;;;;21078786;28;20013;-63
2022/09/08 14:19:33;;;;;;;;;;;;;;;;;;21079057;28;19924;-64
2022/09/08 14:29:35;;;;;;;;;;;;;;;;;;21079449;28;19950;-62
2022/09/08 14:39:37;;;;;;;;;;;;;;;;;;21083131;28;19924;-61
2022/09/08 14:49:39;;;;;;;;;;;;;;;;;;21089033;28;19932;-62
2022/09/08 14:59:41;;;;;;;;;;;;;;;;;;21100304;28;19924;-63
2022/09/08 15:09:43;;;;;;;;;;;;;;;;;;21096566;28;19932;-61
2022/09/08 15:19:47;;;;;;;;;;;;;;;;;;21092488;28;19931;-62
2022/09/08 15:29:55;;;;;;;;;;;;;;;;;;21090700;28;19924;-62
2022/09/08 15:39:57;;;;;;;;;;;;;;;;;;21087127;28;19924;-69
2022/09/08 15:49:59;;;;;;;;;;;;;;;;;;21086221;28;19977;-66
2022/09/08 16:00:02;;;;;;;;;;;;;;;;;;21084572;28;19967;-60
2022/09/08 16:10:04;;;;;;;;;;;;;;;;;;21084311;28;20022;-64
2022/09/08 16:20:06;;;;;;;;;;;;;;;;;;21079956;28;19931;-63
2022/09/08 16:30:08;;;;;;;;;;;;;;;;;;21083345;28;19924;-66
2022/09/08 16:40:10;;;;;;;;;;;;;;;;;;21082482;28;19946;-65
2022/09/08 16:50:12;;;;;;;;;;;;;;;;;;21084668;28;19951;-63
2022/09/08 17:00:14;;;;;;;;;;;;;;;;;;21081892;28;19928;-64
2022/09/08 17:10:16;;;;;;;;;;;;;;;;;;21076468;28;19924;-64
2022/09/08 17:20:18;;;;;;;;;;;;;;;;;;21080902;28;19924;-61
2022/09/08 17:30:21;;;;;;;;;;;;;;;;;;21080384;28;20022;-62
2022/09/08 17:40:22;;;;;;;;;;;;;;;;;;21079830;28;19935;-65
2022/09/08 17:50:24;;;;;;;;;;;;;;;;;;21080194;28;20360;-66
2022/09/08 18:00:26;;;;;;;;;;;;;;;;;;21080317;28;19969;-63
2022/09/08 18:10:28;;;;;;;;;;;;;;;;;;21078755;28;19946;-64
2022/09/08 18:20:32;;;;;;;;;;;;;;;;;;21079153;28;19928;-63
2022/09/08 18:30:35;;;;;;;;;;;;;;;;;;21095182;28;20367;-60
2022/09/08 18:40:37;;;;;;;;;;;;;;;;;;21094659;28;19959;-63
2022/09/08 18:50:39;;;;;;;;;;;;;;;;;;21094627;28;19924;-62
2022/09/08 19:00:41;;;;;;;;;;;;;;;;;;21092914;28;20276;-62
2022/09/08 19:10:44;;;;;;;;;;;;;;;;;;21091929;28;19928;-62
2022/09/08 19:20:46;;;;;;;;;;;;;;;;;;21091086;28;19959;-61
2022/09/08 19:30:48;;;;;;;;;;;;;;;;;;21089898;28;19931;-63
2022/09/08 19:40:50;;;;;;;;;;;;;;;;;;21088329;28;19924;-62
2022/09/08 19:50:52;;;;;;;;;;;;;;;;;;21088216;28;19924;-62
2022/09/08 20:00:53;;;;;;;;;;;;;;;;;;21089706;28;20291;-65
2022/09/08 20:10:55;;;;;;;;;;;;;;;;;;21087252;28;19924;-64
2022/09/08 20:20:58;;;;;;;;;;;;;;;;;;21087377;28;19924;-62
2022/09/08 20:31:01;;;;;;;;;;;;;;;;;;21085629;28;19990;-63
2022/09/08 20:41:04;;;;;;;;;;;;;;;;;;21084849;28;19928;-64
2022/09/08 20:51:07;;;;;;;;;;;;;;;;;;21082928;28;19931;-64
2022/09/08 21:01:09;;;;;;;;;;;;;;;;;;21083732;28;19924;-60
2022/09/08 21:11:11;;;;;;;;;;;;;;;;;;21083023;28;19935;-62
2022/09/08 21:21:12;;;;;;;;;;;;;;;;;;21083645;28;19932;-63
2022/09/08 21:31:14;;;;;;;;;;;;;;;;;;21082221;28;19924;-64
2022/09/08 21:41:19;;;;;;;;;;;;;;;;;;21080105;28;19924;-60
2022/09/08 21:51:21;;;;;;;;;;;;;;;;;;21079730;28;20364;-63
2022/09/08 22:01:23;;;;;;;;;;;;;;;;;;21079523;28;19982;-63
2022/09/08 22:11:25;;;;;;;;;;;;;;;;;;21080543;28;19924;-64
2022/09/08 22:21:27;;;;;;;;;;;;;;;;;;21080349;28;20419;-64
2022/09/08 22:31:29;;;;;;;;;;;;;;;;;;21078641;28;19977;-63
2022/09/08 22:41:31;;;;;;;;;;;;;;;;;;21078863;28;19932;-64
2022/09/08 22:51:33;;;;;;;;;;;;;;;;;;21078105;28;20340;-62
2022/09/08 23:01:36;;;;;;;;;;;;;;;;;;21078445;28;19969;-64
2022/09/08 23:11:38;;;;;;;;;;;;;;;;;;21083949;28;19932;-62
2022/09/08 23:21:40;;;;;;;;;;;;;;;;;;21091412;28;19927;-63
2022/09/08 23:31:43;;;;;;;;;;;;;;;;;;21090533;28;19932;-63
2022/09/08 23:41:45;;;;;;;;;;;;;;;;;;21090294;28;19924;-64
2022/09/08 23:51:47;;;;;;;;;;;;;;;;;;21089595;28;20015;-61
